Time;durP1;ratioP1;P1;durP2;ratioP2;P2;SDS_P1;SDS_P2;PMS_P1;PMS_P2;Temp;Humidity;BMP_temperature;BMP_pressure;BME280_temperature;BME280_humidity;BME280_pressure;Samples;Min_cycle;Max_cycle;Signal;HPM_P1;HPM_P2
2022/10/01 15:10:05;;;;;;;36.20;16.30;;;;;;;18.62;60.08;100922.41;5013774;27;20212;-37
2022/10/01 15:12:39;;;;;;;41.13;16.17;;;;;;;18.82;59.08;100919.56;5023248;28;20061;-36
2022/10/01 15:15:15;;;;;;;34.08;16.40;;;;;;;19.03;59.13;100922.72;4994134;28;20065;-37
2022/10/01 15:17:42;;;;;;;37.45;15.50;;;;;;;19.20;58.30;100929.88;5048193;28;20044;-37
2022/10/01 15:20:11;;;;;;;31.08;14.88;;;;;;;19.34;58.29;100930.31;5037797;28;20055;-37
2022/10/01 15:22:38;;;;;;;31.02;15.13;;;;;;;19.44;57.72;100920.25;5046165;28;20135;-37
2022/10/01 15:25:05;;;;;;;31.95;14.55;;;;;;;19.53;57.86;100915.75;5041126;28;20048;-37
2022/10/01 15:27:32;;;;;;;39.08;15.68;;;;;;;19.59;56.82;100918.66;5044368;28;20048;-36
2022/10/01 15:29:59;;;;;;;31.05;15.35;;;;;;;19.68;56.86;100927.63;5041809;28;20056;-37
2022/10/01 15:32:27;;;;;;;31.17;14.00;;;;;;;19.75;56.94;100930.50;5042121;28;20056;-37
2022/10/01 15:34:56;;;;;;;26.80;13.40;;;;;;;19.81;56.24;100925.28;5007395;28;20108;-37
2022/10/01 15:37:34;;;;;;;30.23;14.27;;;;;;;19.88;55.76;100939.78;5043892;28;20603;-37
2022/10/01 15:40:08;;;;;;;28.77;13.90;;;;;;;19.96;56.26;100938.97;5040147;28;20057;-37
2022/10/01 15:42:35;;;;;;;31.08;15.30;;;;;;;20.01;56.25;100950.06;5043323;28;20064;-37
2022/10/01 15:45:07;;;;;;;32.97;14.48;;;;;;;20.06;55.42;100944.19;5042723;28;20059;-37
2022/10/01 15:47:36;;;;;;;26.73;14.13;;;;;;;20.10;55.99;100962.56;5041473;28;20052;-37
2022/10/01 15:50:04;;;;;;;28.08;14.95;;;;;;;20.15;55.15;100956.69;5045119;28;20359;-38
2022/10/01 15:52:49;;;;;;;26.02;13.95;;;;;;;20.19;55.64;100966.94;5044062;28;20435;-38
2022/10/01 15:55:17;;;;;;;32.15;15.52;;;;;;;20.25;55.21;100968.13;4998971;28;20148;-38
2022/10/01 16:01:38;;;;;;;31.00;13.68;;;;;;;20.34;54.90;100977.06;5035211;28;20481;-38
2022/10/01 16:04:10;;;;;;;31.73;14.05;;;;;;;20.37;55.00;100987.50;5044700;28;20060;-38
2022/10/01 16:06:43;;;;;;;28.13;13.48;;;;;;;20.39;54.45;100986.34;5047797;28;20076;-38
2022/10/01 16:09:16;;;;;;;28.25;13.55;;;;;;;20.41;55.02;100980.78;5045679;28;20462;-38
2022/10/01 16:12:01;;;;;;;25.60;13.32;;;;;;;20.42;54.68;100985.16;5046588;28;20066;-37
2022/10/01 16:14:41;;;;;;;26.40;14.10;;;;;;;20.46;54.08;100991.88;5046795;28;20125;-38
2022/10/01 16:17:16;;;;;;;26.08;13.38;;;;;;;20.46;54.87;100994.56;5036916;28;20478;-37
2022/10/01 16:19:44;;;;;;;27.98;14.88;;;;;;;20.48;54.52;101002.50;5040519;28;20045;-37
2022/10/01 16:22:17;;;;;;;29.92;14.70;;;;;;;20.45;54.25;101000.97;5030014;28;20407;-37
2022/10/01 16:24:45;;;;;;;28.17;13.68;;;;;;;20.46;54.73;101002.66;5033046;28;20060;-37
2022/10/01 16:27:41;;;;;;;25.88;14.27;;;;;;;20.46;54.43;101010.72;5040135;28;20055;-37
2022/10/01 16:30:25;;;;;;;28.58;15.10;;;;;;;20.43;54.17;101016.47;5030641;28;20088;-37
2022/10/01 16:32:52;;;;;;;;;;;;;;;20.42;54.41;101020.16;5033182;28;20049;-37
2022/10/01 16:35:27;;;;;;;28.55;15.57;;;;;;;20.43;53.91;101020.00;5032034;28;19932;-37
2022/10/01 16:37:56;;;;;;;32.00;17.25;;;;;;;20.43;54.07;101025.38;5034656;28;20060;-37
2022/10/01 16:40:39;;;;;;;33.30;17.20;;;;;;;20.40;54.01;101025.72;5034220;28;20060;-37
2022/10/01 16:43:09;;;;;;;35.57;16.50;;;;;;;20.41;54.56;101029.25;5031933;28;20060;-37
2022/10/01 16:45:37;;;;;;;34.10;17.70;;;;;;;20.40;54.38;101020.31;5040584;28;20060;-37
2022/10/01 16:48:15;;;;;;;31.27;16.73;;;;;;;20.37;53.80;101027.88;5039438;28;20060;-37
2022/10/01 16:50:45;;;;;;;33.88;16.73;;;;;;;20.38;54.38;101032.25;5040732;28;20049;-37
2022/10/01 16:53:14;;;;;;;33.38;16.83;;;;;;;20.37;54.38;101033.25;5041992;28;20060;-37
2022/10/01 16:55:42;;;;;;;29.08;15.73;;;;;;;20.38;53.93;101034.94;5041095;28;20057;-37
2022/10/01 16:58:09;;;;;;;27.58;15.63;;;;;;;20.37;53.77;101039.50;5041071;28;20049;-37
2022/10/01 17:00:36;;;;;;;31.10;16.63;;;;;;;20.38;54.14;101048.41;5040159;28;20478;-36
2022/10/01 17:03:07;;;;;;;28.73;15.32;;;;;;;20.37;54.42;101052.94;5042157;28;20045;-37
2022/10/01 17:05:36;;;;;;;29.90;16.05;;;;;;;20.37;53.53;101052.09;5043797;28;20174;-37
2022/10/01 17:08:09;;;;;;;30.40;16.85;;;;;;;20.37;53.93;101052.94;5039574;28;20064;-37
2022/10/01 17:10:42;;;;;;;;;;;;;;;20.37;54.25;101057.50;5041199;28;20132;-37
2022/10/01 17:13:10;;;;;;;28.52;16.23;;;;;;;20.39;54.07;101050.13;5041610;28;20388;-37
2022/10/01 17:15:37;;;;;;;29.30;15.80;;;;;;;20.39;54.25;101056.34;5035977;28;20049;-38
2022/10/01 17:18:03;;;;;;;30.10;15.77;;;;;;;20.38;54.08;101059.16;5041685;28;20530;-37
2022/10/01 17:20:30;;;;;;;26.98;15.18;;;;;;;20.37;53.71;101069.09;5042650;28;20440;-38
2022/10/01 17:22:57;;;;;;;28.48;14.75;;;;;;;20.36;53.75;101069.28;5039549;28;20340;-38
2022/10/01 17:25:31;;;;;;;28.55;14.57;;;;;;;20.35;54.23;101059.53;5038178;28;20054;-38
2022/10/01 17:27:59;;;;;;;24.90;14.63;;;;;;;20.36;54.18;101064.72;5039203;28;20053;-38
2022/10/01 17:30:29;;;;;;;28.05;13.63;;;;;;;20.36;53.36;101064.72;5028299;28;20467;-38
2022/10/01 17:32:58;;;;;;;28.00;14.50;;;;;;;20.37;53.61;101068.25;5037289;28;20355;-38
2022/10/01 17:35:26;;;;;;;21.88;13.13;;;;;;;20.36;53.69;101077.34;5037547;28;20356;-38
2022/10/01 17:37:52;;;;;;;24.98;13.57;;;;;;;20.36;54.30;101090.81;5036537;28;20513;-38
2022/10/01 17:40:19;;;;;;;25.13;14.43;;;;;;;20.35;53.53;101092.66;5035568;28;20044;-38
2022/10/01 17:42:45;;;;;;;20.95;13.07;;;;;;;20.35;53.63;101091.81;5036486;28;20049;-38
2022/10/01 17:45:13;;;;;;;25.80;14.02;;;;;;;20.35;54.06;101098.06;5032658;28;20056;-38
2022/10/01 17:47:44;;;;;;;26.90;13.30;;;;;;;20.34;53.78;101100.88;5035752;28;20057;-38
2022/10/01 17:50:11;;;;;;;23.70;13.15;;;;;;;20.35;53.36;101107.97;5036643;28;20044;-37
2022/10/01 17:52:38;;;;;;;24.33;13.63;;;;;;;20.35;54.03;101097.22;5031069;28;20468;-37
2022/10/01 17:55:05;;;;;;;21.88;12.40;;;;;;;20.34;54.01;101104.44;5038413;28;20064;-38
2022/10/01 17:57:32;;;;;;;22.77;13.30;;;;;;;20.34;54.06;101111.66;5038533;28;20090;-38
2022/10/01 17:59:59;;;;;;;24.10;12.65;;;;;;;20.33;53.87;101110.81;5036255;28;20041;-38
2022/10/01 18:02:25;;;;;;;21.95;13.18;;;;;;;20.33;53.52;101123.44;5040027;28;20233;-37
2022/10/01 18:05:11;;;;;;;25.77;13.48;;;;;;;20.33;53.84;101126.13;5039669;28;20049;-36
2022/10/01 18:07:38;;;;;;;20.92;12.98;;;;;;;20.33;53.75;101134.19;5035632;28;20053;-38
2022/10/01 18:10:07;;;;;;;27.23;14.02;;;;;;;20.33;53.43;101136.91;5036901;28;20068;-38
2022/10/01 18:12:34;;;;;;;24.77;14.02;;;;;;;20.32;54.07;101135.22;5030542;28;20056;-38
2022/10/01 18:15:00;;;;;;;22.23;12.80;;;;;;;20.34;53.95;101149.34;5034357;28;20059;-38
2022/10/01 18:17:27;;;;;;;24.52;13.63;;;;;;;20.32;53.67;101151.38;5034602;28;20057;-38
2022/10/01 18:19:54;;;;;;;24.25;13.82;;;;;;;20.31;53.54;101155.06;5032255;28;20049;-38
2022/10/01 18:22:20;;;;;;;25.77;14.55;;;;;;;20.31;53.94;101163.16;5033125;28;20064;-38
2022/10/01 18:24:47;;;;;;;23.77;13.50;;;;;;;20.30;53.53;101156.94;5032297;28;20068;-38
2022/10/01 18:27:13;;;;;;;25.10;12.95;;;;;;;20.31;54.00;101164.00;5039095;28;20045;-38
2022/10/01 18:29:40;;;;;;;27.70;14.77;;;;;;;20.31;53.75;101165.84;5036709;28;20048;-38
2022/10/01 18:32:14;;;;;;;25.75;14.15;;;;;;;20.31;53.47;101165.84;5038908;28;20068;-38
2022/10/01 18:34:44;;;;;;;28.00;14.85;;;;;;;20.30;54.09;101177.59;5036129;28;20501;-38
2022/10/01 18:37:29;;;;;;;28.67;15.60;;;;;;;20.30;54.09;101182.97;5036759;28;20048;-38
2022/10/01 18:40:04;;;;;;;26.63;16.02;;;;;;;20.32;53.68;101183.69;5034949;28;20057;-38
2022/10/01 18:42:41;;;;;;;28.02;16.00;;;;;;;20.33;53.78;101185.34;5029774;28;20351;-38
2022/10/01 18:45:37;;;;;;;26.63;15.77;;;;;;;20.33;53.94;101190.75;5032016;28;20056;-37
2022/10/01 18:48:25;;;;;;;25.02;14.48;;;;;;;20.33;53.73;101198.81;5036369;28;20523;-38
2022/10/01 18:51:10;;;;;;;27.55;15.60;;;;;;;20.35;54.16;101200.34;5036670;28;20045;-37
2022/10/01 18:53:39;;;;;;;29.95;16.60;;;;;;;20.37;53.84;101197.50;5032205;28;20060;-37
2022/10/01 18:56:13;;;;;;;27.13;16.77;;;;;;;20.36;54.22;101209.28;5038622;28;20060;-38
2022/10/01 18:58:44;;;;;;;29.20;16.52;;;;;;;20.36;53.72;101210.09;5034584;28;20049;-38
2022/10/01 19:01:35;;;;;;;31.50;16.70;;;;;;;20.37;54.14;101209.09;5034810;28;20049;-37
2022/10/01 19:04:26;;;;;;;31.33;17.05;;;;;;;20.38;54.06;101216.19;5035787;28;20234;-37
2022/10/01 19:07:09;;;;;;;29.02;15.88;;;;;;;20.39;53.72;101217.88;5037052;28;20132;-38
2022/10/01 19:09:51;;;;;;;27.20;16.30;;;;;;;20.39;53.60;101217.03;5037768;28;20053;-38
2022/10/01 19:12:31;;;;;;;28.90;16.20;;;;;;;20.38;53.92;101218.00;5039054;28;20479;-38
2022/10/01 19:15:16;;;;;;;29.67;16.80;;;;;;;20.39;54.36;101217.03;5027312;28;20049;-38
2022/10/01 19:17:52;;;;;;;29.58;17.15;;;;;;;20.38;54.27;101216.19;5034921;28;20426;-38
2022/10/01 19:20:42;;;;;;;28.90;16.00;;;;;;;20.38;54.18;101223.41;5034000;28;20045;-38
2022/10/01 19:23:40;;;;;;;27.77;15.73;;;;;;;20.38;53.80;101226.97;5036636;28;20057;-38
2022/10/01 19:26:22;;;;;;;29.73;16.10;;;;;;;20.40;54.01;101226.78;5033062;28;20049;-37
2022/10/01 19:28:59;;;;;;;30.17;16.67;;;;;;;20.40;53.86;101230.31;5036383;28;20363;-37
2022/10/01 19:31:35;;;;;;;29.58;16.70;;;;;;;20.40;53.93;101238.41;5036003;28;20705;-39
2022/10/01 19:34:15;;;;;;;26.38;15.65;;;;;;;20.41;54.52;101232.00;5029558;28;20049;-39
2022/10/01 19:36:52;;;;;;;27.15;15.35;;;;;;;20.41;54.45;101239.25;5036035;28;20057;-40
2022/10/01 19:39:23;;;;;;;28.05;14.95;;;;;;;20.42;53.88;101246.31;5033412;28;20702;-40
2022/10/01 19:41:58;;;;;;;30.10;16.13;;;;;;;20.40;54.47;101241.09;5029049;28;20427;-40
2022/10/01 19:44:32;;;;;;;26.27;14.60;;;;;;;20.42;54.11;101246.31;5034240;28;20048;-39
2022/10/01 19:47:13;;;;;;;;;;;;;;;20.40;54.46;101251.03;5034700;28;20061;-39
2022/10/01 19:49:41;;;;;;;23.92;14.32;;;;;;;20.43;54.47;101246.16;5032881;28;19929;-40
2022/10/01 19:52:13;;;;;;;25.40;14.13;;;;;;;20.42;54.30;101257.94;5031830;28;20427;-40
2022/10/01 19:54:47;;;;;;;25.33;14.63;;;;;;;20.41;54.00;101258.09;5034970;28;20053;-40
